Terminal Aerodrome Forecast
Issued by NWS Charleston, WV

Current Version | Previous Version | Text Only | Print | Product List | Glossary Off
Versions: 1 2 3 4 5 6 7 8 9 10 11 12 13 14 15 16 17 18 19 20 21 22 23

000
FTUS41 KRLX 290554
TAFPKB
TAF
KPKB 290554Z 2906/3006 00000KT 6SM BR SCT250
     FM290900 00000KT 5SM BR SCT250
     FM291100 00000KT P6SM BKN150
     FM291600 19006KT P6SM BKN080
     FM300200 21006KT P6SM VCTS BKN040CB
     FM300300 21006KT 4SM SHRA BR VCTS OVC035CB
     FM300500 21006KT 6SM SHRA BR VCTS BKN040CB=

USA.gov is the U.S. government's official web portal to all federal, state and local government web resources and services.